Happy Trails

back to results

Jun. 21, 2008

Happy Trails
Toledo,OH
Provided by Gault Race Mgt.


Overall Male Overall Winners

Place Name City Bib No Age Overall Time Pace
1 Nick Kruse Austintown OH 471 24 1 15:35 5:02/M
2 Nick Petro Erie MI 498 17 2 16:23 5:17/M
3 Steve Baugh Sylvania OH 491 40 3 16:45 5:24/M

Overall Male Masters Winners

Place Name City Bib No Age Overall Time Pace
1 Donald Leck Maumee OH 466 50 8 17:38 5:41/M
2 Joe Baker Millbury OH 18 46 9 17:55 5:47/M
3 Sam Torres Toledo OH 290 55 11 18:12 5:52/M

Overall Male Seniors Winners

Place Name City Bib No Age Overall Time Pace
1 Daniel Ordaz Holgate OH 493 53 20 19:14 6:12/M
2 Steve Haubert Sylvania OH 113 52 35 20:10 6:30/M
3 John Louathorne Toledo OH 451 54 37 20:24 6:35/M

Male 10 & under

Place Name City Bib No Age Overall Time Pace
1 Tyndale Hannan Bowling Green OH 104 10 47 21:04 6:48/M
2 Trent Croci Sylvania OH 479 10 57 21:18 6:52/M
3 Bradley Crandall Sylvania OH 423 9 178 26:48 8:39/M
4 Brenden McMurray Toledo OH 377 10 306 31:16 10:05/M
5 Stephen Wainz Toledo OH 363 10 315 31:34 10:11/M
6 Brad Rhegness Toledo OH 355 8 317 31:38 10:12/M
7 Shawn McMurray 378 9 321 31:45 10:15/M
8 Tyler Salyers Holland OH 245 9 344 32:40 10:32/M
9 Justus Windom Sylvania OH 316 8 358 33:12 10:43/M
10 George Townley Sylvania OH 292 6 391 35:55 11:35/M
11 Lucas Honisko Sylvania OH 124 6 428 40:53 13:11/M
12 Cameron Miller Toledo OH 508 9 442 43:47 14:07/M

Male 11 to 14

Place Name City Bib No Age Overall Time Pace
1 Cody Dew Toledo OH 66 12 93 23:22 7:32/M
2 Joey Sechrist Whitehouse OH 256 11 102 23:38 7:37/M
3 Logan Smith 380 12 127 24:46 7:59/M
4 Alex Newberg Moncolva OH 464 12 194 27:27 8:51/M
5 Tyler Begley Toledo OH 30 14 389 35:28 11:26/M

Male 15 to 19

Place Name City Bib No Age Overall Time Pace
1 Paul Klocinski Toledo OH 162 18 5 17:07 5:31/M
2 John Wodarski Jr Sylvania OH 318 15 7 17:35 5:40/M
3 William Damaskos Toledo OH 60 16 12 18:20 5:55/M
4 Adam Vaughn Perrysburg OH 300 18 15 18:50 6:05/M
5 Jacob Berry Ottawa Lake MI 33 15 16 18:51 6:05/M
6 Matt Powers Toledo OH 411 15 17 19:08 6:10/M
7 Andrew Althaus Temperance MI 4 17 19 19:13 6:12/M
8 Jesse Henkel Erie MI 117 15 22 19:24 6:15/M
9 Danny Wurzinger Toledo OH 480 15 34 20:10 6:30/M
10 Travis Sharp Toledo OH 259 16 39 20:25 6:35/M
11 Alex Kocol Whitehouse OH 522 16 48 21:04 6:48/M
12 Kevin Kinor Maumee OH 158 18 223 28:24 9:10/M
13 Jesse Meiring Temperance MI 203 16 245 29:37 9:33/M
14 Taylor Johnson Holland OH 138 17 384 35:12 11:21/M

Male 20 to 24

Place Name City Bib No Age Overall Time Pace
1 Chris Finn Toledo OH 455 20 4 17:00 5:29/M
2 Matt Johnson Lambertville MI 140 24 6 17:23 5:36/M
3 Ryan McIntyre Monroe MI 200 24 10 18:09 5:51/M
4 Gabe Quiroga Temperance MI 235 20 14 18:31 5:58/M
5 Andrew Stearns Toledo OH 334 21 38 20:25 6:35/M
6 Ruskin Tansel Dundee MI 279 22 46 21:03 6:47/M
7 Eric Geyer Columbia Station O 90 23 50 21:05 6:48/M
8 Brian Lolh Swanton OH 513 23 70 21:57 7:05/M
9 Quentin Moore Bucyrus OH 211 21 80 22:24 7:14/M
10 Matt Beach Monclova OH 347 23 109 23:51 7:42/M
11 Pete Craauen Newport MI 523 24 142 25:18 8:10/M
12 Bryan Hickman Toledo OH 516 24 154 25:51 8:20/M
13 Matt Zippilli Toledo OH 329 23 164 26:19 8:29/M
14 Andrew McPhillips Toledo OH 429 23 176 26:44 8:37/M
15 David Kubacki Maumee OH 395 24 191 27:23 8:50/M
16 Jason Dehm Toledo OH 65 20 197 27:31 8:53/M
17 Mark Loeser Sylvania OH 398 22 327 31:53 10:17/M
18 Ashley Bly Toledo OH 536 23 346 32:47 10:35/M
19 Don Hertzfeld Bowling Green OH 421 24 367 33:35 10:50/M
20 Michael Reese Toledo OH 238 22 408 37:58 12:15/M
21 Kevin Hartman Perrysburg OH 109 21 409 37:58 12:15/M

Male 25 to 29

Place Name City Bib No Age Overall Time Pace
1 Jeff Wilson Toledo OH 413 28 52 21:08 6:49/M
2 Steve Hallock Toledo OH 400 29 54 21:12 6:50/M
3 Bobby Gospodarek Toledo OH 476 27 71 22:01 7:06/M
4 Cody Ward Toledo OH 537 25 91 23:16 7:30/M
5 Brian Lodermeier Perrysburg OH 180 25 94 23:24 7:33/M
6 Nathan Konrao Toledo OH 505 29 96 23:27 7:34/M
7 Kevin Wilcheck Toledo OH 401 28 98 23:29 7:35/M
8 Piotr Gacek Toledo OH 85 25 106 23:46 7:40/M
9 Justin Brazeau Sylvania OH 51 26 118 24:16 7:50/M
10 Michael Dillon Toledo OH 70 26 137 25:03 8:05/M
11 Andres Cordero Toledo OH 427 26 153 25:47 8:19/M
12 Timothy Wiegand Holland OH 310 27 168 26:24 8:31/M
13 Jason Reichel Toledo OH 239 26 175 26:43 8:37/M
14 Michael Downey Toledo OH 535 25 181 26:58 8:42/M
15 James Green Petersburg MI 453 25 193 27:24 8:50/M
16 David Zenk Van Buren OH 326 29 234 29:01 9:22/M
17 David Smith Toledo OH 262 25 361 33:24 10:46/M
18 Douglas Sturtz Toledo OH 275 29 378 34:11 11:02/M
19 Chandlel Hoffman Oregon OH 518 26 402 36:58 11:55/M

male 30 to 34

Place Name City Bib No Age Overall Time Pace
1 Martin Geithmann Maumee OH 89 34 18 19:09 6:11/M
2 Matt Kolinski Holland OH 164 33 24 19:30 6:17/M
3 Michael Schroeder Toledo OH 428 33 29 19:50 6:24/M
4 James Bockey Temperance MI 46 33 31 19:57 6:26/M
5 Griffin Julius Toledo OH 142 31 44 20:56 6:45/M
6 Tony Fietz Petersburg MI 452 31 45 20:59 6:46/M
7 Steve Kwiatkowski Toledo OH 434 33 62 21:27 6:55/M
8 Mark Bratt Toledo OH 50 34 68 21:56 7:05/M
9 Eric Young Maumee OH 322 34 115 24:06 7:46/M
10 Glover Sheldon Toledo OH 446 30 121 24:26 7:53/M
11 Myles Moore Mt Victory OH 468 32 126 24:38 7:57/M
12 Sam Krall Perrysburg OH 430 34 133 24:54 8:02/M
13 Chris Smith Toledo OH 263 34 136 25:01 8:04/M
14 Patrick Schwenk Sylvania OH 482 33 143 25:19 8:10/M
15 Daniel Kubacki Maumee OH 394 31 163 26:08 8:26/M
16 Edward Ordorica Sylvania OH 227 33 173 26:40 8:36/M
17 Christopher Wedge Maumee OH 447 32 190 27:15 8:47/M
18 Jason Bydash Toledo OH 54 30 235 29:02 9:22/M
19 Eric Yarberry Maumee OH 473 32 273 30:08 9:43/M
20 Steve Blasi Toledo OH 43 32 278 30:24 9:48/M
21 Aurelio Valadez Maumee OH 296 34 285 30:28 9:50/M
22 Steve Gormley Toledo OH 503 31 304 31:14 10:05/M
23 Anthony Bishop Sylvania OH 38 31 311 31:22 10:07/M
24 Denis Hassel Muamee OH 110 32 335 32:17 10:25/M
25 Eric Bachar Toledo OH 477 32 348 32:51 10:36/M
26 Mike Henderson Bowling Green OH 116 32 366 33:35 10:50/M
27 Steve Schoen 441 34 385 35:12 11:21/M
28 Olugbenga Ajilore Toledo OH 454 33 396 36:15 11:42/M
29 Jason Gorr Toledo OH 95 32 413 38:00 12:15/M
30 Mike Lake Swanton OH 172 33 420 38:45 12:30/M

Male 35 to 39

Place Name City Bib No Age Overall Time Pace
1 Dan Kight Ottawa Hills OH 383 37 26 19:43 6:22/M
2 David Bodner Toledo OH 47 39 49 21:05 6:48/M
3 Ken Ludwig Maumee OH 182 38 56 21:14 6:51/M
4 Suresh Koneswaran Toledo OH 450 36 61 21:22 6:54/M
5 Ray Verdin Perrysburg OH 500 38 75 22:08 7:08/M
6 Dale Sheppard Sylvania OH 260 35 82 22:34 7:17/M
7 Greg Dew Toledo OH 67 38 86 22:53 7:23/M
8 Brian Langsdorf Moncolva OH 174 39 87 22:57 7:24/M
9 Daniel Ebic Toledo OH 483 36 95 23:26 7:34/M
10 Jonathon Drake Toledo OH 72 35 101 23:35 7:36/M
11 Don Comes Toledo OH 538 39 111 23:53 7:42/M
12 Michael Klear Holland OH 159 35 119 24:19 7:51/M
13 James Liwo Toledo OH 369 37 124 24:35 7:56/M
14 Timothy Schunk Perrysburg OH 501 36 125 24:36 7:56/M
15 Adam Theall Sylvania OH 444 35 150 25:38 8:16/M
16 Rick Reed Toledo OH 517 39 162 26:05 8:25/M
17 Robert Heckman Maumee OH 115 39 171 26:36 8:35/M
18 Jeffrey Litton Toledo OH 179 36 185 27:06 8:45/M
19 Ed Zielke North Olmsted OH 328 37 188 27:09 8:45/M
20 Matt Thomas Toledo OH 281 36 208 27:51 8:59/M
21 Edward Perozek Toledo OH 487 35 209 27:53 9:00/M
22 Jore Beck Stryker OH 27 38 221 28:23 9:09/M
23 Chris Simon Lambertville MI 509 35 238 29:07 9:24/M
24 Rich Hansen Temperance MI 106 39 239 29:07 9:24/M
25 Rick Goheen Toledo OH 94 39 265 30:01 9:41/M
26 Joseph Ashcraft Ray MI 10 38 277 30:21 9:47/M
27 James Rhegness Toledo OH 356 38 316 31:38 10:12/M
28 Bruce Myers Toledo OH 213 37 318 31:39 10:13/M
29 Chris Ebright Delta OH 439 39 329 32:02 10:20/M
30 Dyan Windom Sylvania OH 317 35 357 33:11 10:42/M
31 Mark Wahlquise Toledo OH 529 35 381 34:21 11:05/M
32 Scott Howard Walbridge OH 128 38 382 34:44 11:12/M
33 Stephen Honisko Sylvania OH 127 38 429 40:54 13:12/M
34 Bryan Bialecki Toledo OH 36 36 432 41:53 13:31/M

Male 40 to 44

Place Name City Bib No Age Overall Time Pace
1 Jon Monheim Perrysburg OH 210 40 13 18:30 5:58/M
2 David Sealscott Toledo OH 435 40 23 19:28 6:17/M
3 John Johnson Shelton WA 141 40 32 20:05 6:29/M
4 Ken Kolosso Temperance MI 165 43 42 20:51 6:44/M
5 Joe Areddy Maumee OH 390 43 43 20:54 6:45/M
6 Eric Meglitsch Toledo OH 202 43 58 21:18 6:52/M
7 Kevin Pile Wauseon OH 233 43 63 21:35 6:58/M
8 Jack Dias Toledo OH 472 40 64 21:35 6:58/M
9 Greg Tipping Columbus OH 459 42 73 22:07 7:08/M
10 Timothy Steingass Toledo OH 373 43 83 22:36 7:17/M
11 Dan Klein Toledo OH 160 43 110 23:52 7:42/M
12 Mike Haines Whitehouse OH 335 43 112 23:57 7:44/M
13 Michael Linn Toledo OH 352 41 138 25:07 8:06/M
14 Craig Bourcrier 499 44 146 25:30 8:14/M
15 John McLaughlin Whitehouse OH 417 41 147 25:32 8:14/M
16 Pete Areddy Maumee OH 389 41 148 25:37 8:16/M
17 David Hannan Bowling Green OH 105 42 149 25:37 8:16/M
18 Don Rettig Perrysburg OH 240 42 151 25:39 8:16/M
19 Todd Kime Toledo OH 154 43 169 26:25 8:31/M
20 Jeff Mihlbauer Oregon OH 512 44 183 27:04 8:44/M
21 Michael Chrysochoos Toledo OH 57 43 220 28:22 9:09/M
22 Bob Jagielski Toledo OH 418 40 228 28:40 9:15/M
23 Doug Smith 379 42 230 28:46 9:17/M
24 John Stacy Toledo OH 440 40 256 29:47 9:36/M
25 David McMurray Toledo OH 375 42 370 33:42 10:52/M

Male 45 to 49

Place Name City Bib No Age Overall Time Pace
1 Timothy Mooney Toledo OH 490 48 25 19:31 6:18/M
2 Dan Sechrist Whitehouse OH 255 48 27 19:49 6:24/M
3 Jon Baker Millbury OH 19 49 41 20:36 6:39/M
4 Dan Reis Maumee OH 448 45 72 22:07 7:08/M
5 Michael Walsh Maumee OH 302 45 74 22:08 7:08/M
6 David Hertz Toledo OH 506 46 90 23:13 7:29/M
7 Michael Fisher Bowling Green OH 80 45 104 23:41 7:38/M
8 Ed Thompson Perrysburg OH 283 48 117 24:11 7:48/M
9 Domingo Valadez Temperance MI 295 49 158 26:01 8:24/M
10 Mike Kupa Petersburg MI 169 48 174 26:42 8:37/M
11 Robert Quigley Perrysburg OH 333 48 192 27:24 8:50/M
12 David Pakulski Toledo OH 229 47 204 27:44 8:57/M
13 Alan Eyre Toledo OH 79 47 218 28:20 9:08/M
14 Mark Keeling Ottawa Lake MI 147 49 258 29:52 9:38/M
15 William Antoszewski Whitehouse OH 5 45 282 30:27 9:49/M
16 James Adams Sylvania OH 1 46 290 30:33 9:51/M
17 Brian Young Perrysburg OH 324 47 293 30:35 9:52/M
18 Brian Naveken Toledo OH 217 45 362 33:27 10:47/M

Male 50 to 54

Place Name City Bib No Age Overall Time Pace
1 Terry Kotalik Perrysburg OH 167 54 55 21:13 6:51/M
2 Larry Dilabblo Toledo OH 485 50 67 21:55 7:04/M
3 Edward O'Reily Maumee OH 497 54 77 22:14 7:10/M
4 Frank Leinweber Ottawa Hills OH 177 53 120 24:23 7:52/M
5 Chuck Hiller Toledo OH 336 54 122 24:26 7:53/M
6 Richard Kaverman Toledo OH 145 53 141 25:16 8:09/M
7 John Harrigan Toledo OH 107 50 213 28:05 9:04/M
8 John Wolff Bowling Green OH 461 50 216 28:16 9:07/M
9 Craig Newberg Moncolva OH 465 50 260 29:52 9:38/M
10 Paul Molnar Toledo OH 387 51 294 30:37 9:53/M
11 Peter Smythe Toledo OH 267 52 297 30:46 9:55/M
12 Sandy Kinor Maumee OH 156 53 454 45:49 14:47/M

Male 55 to 59

Place Name City Bib No Age Overall Time Pace
1 Lou McLove Toledo OH 201 58 88 23:04 7:26/M
2 Dennis Bahnsen Port Clinton OH 374 55 97 23:28 7:34/M
3 David Jankowski Maumee OH 136 55 123 24:31 7:55/M
4 John Saari Toledo OH 244 56 177 26:46 8:38/M
5 George Ho Oregon OH 119 57 244 29:36 9:33/M
6 Kevin Middleton Toledo OH 205 56 457 48:13 15:33/M

Male 60 to 64

Place Name City Bib No Age Overall Time Pace
1 David Koelsch Toledo OH 410 61 81 22:26 7:14/M
2 Arnie Elton Whitehouse OH 74 60 84 22:37 7:18/M
3 Tim Duffey Toledo OH 460 61 186 27:07 8:45/M
4 Bill Beard Ottawa Lake MI 359 62 255 29:46 9:36/M
5 Richard McCraney Whitehouse OH 515 62 295 30:38 9:53/M
6 Bob Berns Toledo OH 488 60 407 37:52 12:13/M

Male 65 to 69

Place Name City Bib No Age Overall Time Pace
1 Armando Vallejo Maumee OH 297 65 134 24:54 8:02/M
2 Gary McBride Toledo OH 192 69 236 29:04 9:23/M
3 Tom Shirk Sylvania OH 354 66 333 32:07 10:22/M
4 Tom Wiles Perrysburg OH 312 65 340 32:32 10:30/M
5 Harold Foote Sylvania OH 511 67 427 40:49 13:10/M

Male 70 to 74

Place Name City Bib No Age Overall Time Pace
1 Frank Artrip Lambertville MI 9 71 212 27:57 9:01/M
2 Gerald Bazer Toledo OH 26 70 276 30:19 9:47/M
3 George Royer Toledo OH 539 72 301 31:08 10:03/M

Male 75 to 79

Place Name City Bib No Age Overall Time Pace
1 Walter Kosydar Toledo OH 166 79 436 42:49 13:49/M
2 Richard Freed Toledo OH 83 75 447 45:13 14:35/M

No Age Given

Place Name City Bib No Age Overall Time Pace
1 Jeff Delverne Toledo OH 402 99 189 27:15 8:47/M




Overall Female Overall Winners

Place Name City Bib No Age Overall Time Pace
1 Kate Calhoun Lambertville MI 478 17 21 19:15 6:13/M
2 Ashley Evens Maumee OH 77 19 28 19:49 6:24/M
3 Kelsey Calhoun Lambertville MI 407 14 30 19:56 6:26/M

Overall Female Masters Winners

Place Name City Bib No Age Overall Time Pace
1 Becky Mincheff Oregon OH 207 44 33 20:08 6:30/M
2 Debra Wagner Perrysburg OH 366 56 36 20:15 6:32/M
3 Kelly Jewell Toledo OH 486 48 66 21:47 7:02/M

Overall Female Seniors Winners

Place Name City Bib No Age Overall Time Pace
1 Joan Mathews Maumee OH 189 51 69 21:57 7:05/M
2 Viola Ordaz Holgate OH 492 50 113 24:05 7:46/M
3 Linda Haubert Sylvania OH 112 52 135 24:56 8:03/M

Female 10 and under

Place Name City Bib No Age Overall Time Pace
1 Caelan Carter Toledo OH 520 8 250 29:41 9:35/M
2 Katherine Naveken Toledo OH 220 7 369 33:37 10:51/M
3 Abigail Honisko Sylvania OH 125 8 373 33:53 10:56/M
4 Lindsey Townley Sylvania OH 293 9 421 39:18 12:41/M
5 Katie Miller Toledo OH 206 10 426 40:49 13:10/M
6 Angel Stiner Toledo OH 272 7 450 45:36 14:43/M

Female 11 to 14

Place Name City Bib No Age Overall Time Pace
1 Alexandra Aughenbaugh Sylvania OH 12 14 60 21:21 6:53/M
2 Riley Sechrist Whitehouse OH 257 14 129 24:47 8:00/M
3 Elizabeth Hertz Toledo OH 507 13 130 24:49 8:00/M
4 Molly Porterfield Sylvania OH 342 14 259 29:52 9:38/M
5 Bridget Smythe Toledo OH 264 13 268 30:06 9:43/M
6 Rachel Apple Sylvania OH 6 14 371 33:48 10:54/M
7 Megan Lear Toledo OH 176 13 387 35:17 11:23/M
8 Stephenie Honisko Sylvania OH 126 14 414 38:05 12:17/M
9 Melody Vartanian Toledo OH 299 11 425 40:44 13:08/M
10 Kara Kime Toledo OH 151 11 458 51:31 16:37/M
11 Molly Kime Toledo OH 152 14 459 51:31 16:37/M
12 Gabrielle Schaller Toledo OH 249 11 463 51:52 16:44/M

Female 15 to 19

Place Name City Bib No Age Overall Time Pace
1 Sara Armstrong Sylvania OH 408 18 53 21:08 6:49/M
2 Sarah Johnson Shelton WA 137 16 78 22:16 7:11/M
3 Ksenia Kriatchkova Sylvania OH 349 17 89 23:07 7:27/M
4 Colleen Smythe Toledo OH 265 16 92 23:18 7:31/M
5 Morgan White Monroe MI 306 15 160 26:04 8:25/M
6 Alyssa High Ottawa Lake MI 456 16 165 26:19 8:29/M
7 Rachel Kalinoski Toledo OH 361 15 166 26:20 8:30/M
8 Katie Welsh Toledo OH 304 18 195 27:29 8:52/M
9 Alyssa Huebner Toledo OH 129 15 198 27:31 8:53/M
10 Courtney Naveken Toledo OH 218 19 207 27:50 8:59/M
11 Emily Brungard Perrysburg OH 52 19 217 28:18 9:08/M
12 Alexis Levin Grand Rapids OH 526 15 248 29:40 9:34/M
13 Kaylee Koepfer Toledo OH 392 15 251 29:44 9:35/M
14 Zoe Chrysochoos Toledo OH 391 15 252 29:44 9:35/M
15 Kathryn Smythe Toledo OH 266 19 269 30:06 9:43/M
16 Leama Ajaka Toledo OH 433 17 332 32:04 10:21/M
17 Adelle Abonarrage Toledo OH 431 19 337 32:25 10:27/M
18 Nadine Ajaka Toledo OH 432 17 338 32:27 10:28/M
19 April Metzler Toledo OH 348 19 341 32:32 10:30/M

Female 20 to 24

Place Name City Bib No Age Overall Time Pace
1 Madelyn McGhee Hubbard 0H 469 21 65 21:40 6:59/M
2 Mary Wilson Toledo OH 314 21 99 23:31 7:35/M
3 Anya Woody Temperance MI 320 22 128 24:47 8:00/M
4 Jordan Blaney Toledo OH 41 23 155 25:53 8:21/M
5 Samantha Lipman Toledo OH 528 23 215 28:14 9:06/M
6 Ashley Ross Toledo OH 350 22 227 28:34 9:13/M
7 Melissa Hurst Swanton OH 132 24 242 29:24 9:29/M
8 Sarah Matuszek Sylvania OH 190 21 310 31:21 10:07/M
9 Delaney Banas Toledo OH 458 20 323 31:47 10:15/M
10 Amy Wolcott 382 23 328 31:56 10:18/M
11 Suzy Johnson Lambertville MI 139 23 334 32:17 10:25/M
12 Eric Kinor Maumee OH 157 24 352 33:00 10:39/M
13 Ashley Begley Toledo OH 29 20 390 35:46 11:32/M
14 Jenna Boll Temperance MI 340 22 399 36:26 11:45/M
15 Theresa Cordero Toledo OH 422 22 404 37:35 12:07/M
16 Ashley Thompson Perrysburg OH 282 21 410 37:58 12:15/M
17 Dhriti Pandhi Perrysburg OH 230 22 411 37:59 12:15/M
18 Kori Redman Maumee OH 237 24 443 44:07 14:14/M

Female 25 to 29

Place Name City Bib No Age Overall Time Pace
1 Nicole Matthews Oregon OH 474 25 40 20:29 6:36/M
2 Kristen Palmer Sylvania OH 371 26 76 22:13 7:10/M
3 Victoria Dugger Perrysburg OH 384 29 107 23:46 7:40/M
4 Amanda Kean Toledo OH 146 26 114 24:05 7:46/M
5 Karen McClain Lambertville MI 195 25 159 26:02 8:24/M
6 Annie Metcalf Toledo OH 489 26 172 26:36 8:35/M
7 Ginger Gibson Chicago IL 388 28 196 27:29 8:52/M
8 Sara Scanlon Sylvania OH 247 29 205 27:49 8:58/M
9 Rachael Holt Maumee OH 122 26 206 27:50 8:59/M
10 Kim Wilson Toledo OH 315 28 219 28:20 9:08/M
11 Lindsay Dillon Toledo OH 69 26 225 28:29 9:11/M
12 Meghan Lagergren Toledo OH 496 27 240 29:10 9:25/M
13 Katherine Carter Milan MI 56 28 241 29:18 9:27/M
14 Natalie McCormack Petersburg MI 197 27 246 29:38 9:34/M
15 Kelly Plath Toledo OH 234 25 254 29:45 9:36/M
16 Sarah Bocik Toledo OH 45 25 266 30:02 9:41/M
17 Jamie Pierce Toledo OH 232 29 267 30:05 9:42/M
18 Erin Raitz Maumee OH 527 27 280 30:26 9:49/M
19 Hallie Freed Toledo OH 530 25 296 30:44 9:55/M
20 Melissa Bellomo Toledo OH 31 27 298 30:47 9:56/M
21 Adrienne Walch Perrysburg OH 301 27 302 31:09 10:03/M
22 Sara Rother Toledo OH 243 25 303 31:09 10:03/M
23 Julie Alessi Toledo OH 415 28 330 32:03 10:20/M
24 Jessica Cullman Bowling Green OH 416 28 331 32:03 10:20/M
25 Pamela Zenk Van Buren OH 327 29 336 32:20 10:26/M
26 Kate Arnold Toledo OH 8 26 347 32:47 10:35/M
27 Stephanie Blasi Toledo OH 42 29 349 32:54 10:37/M
28 Erin Ernest Curtice OH 424 25 356 33:09 10:42/M
29 Karen Wu Perrysburg OH 321 29 365 33:35 10:50/M
30 Stephanie Zaleski Toledo OH 484 26 375 34:07 11:00/M
31 Katherine Eisenstein Holland OH 73 27 380 34:20 11:05/M
32 Stephanie Mash Toledo OH 187 29 394 35:59 11:36/M
33 Crystal Threet Williston OH 285 25 423 40:12 12:58/M
34 Michelle Pachuta Bowling Green OH 228 27 433 42:16 13:38/M
35 Kim Tanner Toledo OH 278 28 451 45:36 14:43/M

Female 30 to 34

Place Name City Bib No Age Overall Time Pace
1 Hallie Heigel-Williams Sylvania OH 524 31 51 21:06 6:48/M
2 Janell Toth Holland OH 291 33 59 21:20 6:53/M
3 Laura Carr Toledo OH 358 31 100 23:35 7:36/M
4 Abigail Damer Toledo OH 61 33 105 23:43 7:39/M
5 Carilyn Hall Toledo OH 102 33 132 24:52 8:01/M
6 Anna Arch Toledo OH 7 32 144 25:19 8:10/M
7 Kendra Roell Liberty Center OH 338 31 152 25:47 8:19/M
8 Regina Shoblaq Toledo OH 261 30 157 25:56 8:22/M
9 Angela Bondy Toledo OH 48 33 167 26:23 8:31/M
10 Amanda Zoeller Monclova OH 330 33 180 26:52 8:40/M
11 Gabe Young Sylvania OH 323 34 201 27:42 8:56/M
12 Jessica Sewald Sylvania OH 258 31 224 28:26 9:10/M
13 Christy Crawford Temperance MI 365 32 232 28:59 9:21/M
14 Jeanne Tomasi Toledo OH 288 31 272 30:08 9:43/M
15 Kelly Drake Toledo OH 71 33 274 30:13 9:45/M
16 Amy Daunhauer Toledo OH 64 33 300 30:58 9:59/M
17 Allison Ayotte Toledo OH 502 32 309 31:18 10:06/M
18 Karen Walker Lambertville MI 445 32 314 31:33 10:11/M
19 Evan Straub Toledo OH 273 34 320 31:43 10:14/M
20 Erin Kolinski Holland OH 163 30 343 32:39 10:32/M
21 Monica Kuhr Lambertville MI 385 33 345 32:46 10:34/M
22 Nicole Niles Toledo OH 442 33 351 32:58 10:38/M
23 Maro McElheney Toledo OH 397 34 353 33:03 10:40/M
24 Lisa Dickens Oregon OH 396 34 354 33:03 10:40/M
25 Tami Nickles Toledo OH 221 33 355 33:06 10:41/M
26 Stephanie Eby Temperance MI 339 32 372 33:51 10:55/M
27 Jennifer Hoelzer Waterville OH 120 33 397 36:22 11:44/M
28 Nicole Barnhizer Toledo OH 21 30 405 37:38 12:08/M
29 Penny Wagner Swanton OH 534 33 412 37:59 12:15/M
30 Wendy Molina Toledo OH 209 30 417 38:16 12:21/M
31 Lisa Hummer Lambertville MI 130 30 419 38:35 12:27/M
32 Julie Bialecki Toledo OH 35 34 431 41:53 13:31/M
33 Katherine Wilson Northwood OH 531 33 434 42:17 13:38/M
34 Shannon Meyer Sylvania OH 403 31 452 45:45 14:45/M
35 Emily Ordorica Sylvania OH 226 32 456 48:06 15:31/M

Female 35 to 39

Place Name City Bib No Age Overall Time Pace
1 Jen Molnar Toledo OH 475 35 79 22:20 7:12/M
2 Denise Dashner Temperance MI 62 38 145 25:25 8:12/M
3 Isabel Escobar Toledo OH 76 35 161 26:05 8:25/M
4 Lori Nagle Toledo OH 214 39 179 26:49 8:39/M
5 Peace Hassel Maumee OH 111 35 187 27:09 8:45/M
6 Jennifer Vartanian Toledo OH 298 38 199 27:32 8:53/M
7 Kamie Beck Stryker OH 28 39 222 28:24 9:10/M
8 Sue Gwozdz Sylvania OH 101 39 226 28:30 9:12/M
9 Vickie Thomas Toledo OH 280 35 233 29:01 9:22/M
10 Lori Kohler Temperance MI 404 38 237 29:04 9:23/M
11 Kathy Hermiller Sylvania OH 118 37 243 29:31 9:31/M
12 Betsy Carter Toledo OH 519 39 249 29:41 9:35/M
13 Shannon Tupper Maumee OH 525 37 257 29:51 9:38/M
14 Judy Schunk Toledo OH 253 36 261 29:53 9:38/M
15 Jennifer Lake Swanton OH 171 36 262 29:58 9:40/M
16 Andrea Areddy Maumee OH 425 36 275 30:13 9:45/M
17 Connie Payton Swanton OH 231 39 288 30:31 9:51/M
18 Lisa Hunter Toledo OH 131 38 289 30:32 9:51/M
19 Beth Malczewski Sylvania OH 185 37 307 31:17 10:05/M
20 Kelly Arndt Maumee OH 495 38 319 31:39 10:13/M
21 Jamie Freed Toledo OH 81 38 322 31:46 10:15/M
22 Lisa Thomas Toledo OH 470 38 324 31:48 10:15/M
23 Jenifer Henderson Toledo OH 420 36 339 32:32 10:30/M
24 Leslie Rhegness Toledo OH 357 35 350 32:56 10:37/M
25 Kristi Noviski Toledo OH 223 37 360 33:14 10:43/M
26 Pam Narvaez Tolepd OH 215 36 368 33:35 10:50/M
27 Meredith Gloldberg Toledo OH 93 39 374 33:55 10:56/M
28 Margery Grill Sylvania OH 99 35 376 34:08 11:01/M
29 Michelle Liwo Toledo OH 370 36 379 34:16 11:03/M
30 Amy Sweet Toledo OH 276 35 401 36:49 11:53/M
31 Jennifer Mata Temperance MI 188 35 406 37:43 12:10/M
32 Kerri Townley Sylvania OH 294 35 422 39:19 12:41/M
33 Cathy Baldwin Toledo OH 332 36 430 41:42 13:27/M
34 Kellie Mitchell Toledo OH 208 39 437 42:51 13:49/M
35 Sandy Whitcomb Toledo OH 305 39 444 44:21 14:18/M
36 Rebecca Prothero Toledo OH 532 36 455 45:56 14:49/M

Female 40 to 44

Place Name City Bib No Age Overall Time Pace
1 Dianna Ashton Luckey OH 11 41 85 22:41 7:19/M
2 Stephanie McCarthy Toledo OH 194 40 116 24:10 7:48/M
3 Angie Vanostrand Metamora OH 463 42 139 25:08 8:06/M
4 Ellen Besase Toledo OH 34 42 156 25:53 8:21/M
5 Kim Schulisch Toledo OH 251 43 182 27:01 8:43/M
6 Lindsey Burmeister Toledo OH 53 43 200 27:37 8:55/M
7 Elizabeth Toland Toledo OH 286 41 202 27:43 8:56/M
8 Janice Naveken Toledo OH 219 41 247 29:39 9:34/M
9 Julie Schultz Perrysburg OH 252 42 263 29:59 9:40/M
10 Cecilia Sangoy Sylvania OH 246 42 283 30:27 9:49/M
11 Suzanne Nelson Toledo OH 399 41 305 31:15 10:05/M
12 Jacqui Kapolnek Carleton MI 143 44 325 31:51 10:16/M
13 Jaime Corrello Toledo OH 419 40 326 31:51 10:16/M
14 Lisa McMurray 376 42 363 33:32 10:49/M
15 Melanie Lager Toledo OH 170 44 393 35:59 11:36/M
16 Sandra Lung Perrysburg OH 183 42 415 38:09 12:18/M
17 Robin Raitz Toledo OH 409 44 424 40:12 12:58/M
18 Kris Miller Temperance MI 343 40 435 42:49 13:49/M
19 Sandra Szymanski Toledo OH 277 44 439 42:59 13:52/M
20 Nancy Kime Toledo OH 153 43 461 51:32 16:37/M

Female 45 to 49

Place Name City Bib No Age Overall Time Pace
1 Lisa Diekman Martin OH 68 47 103 23:39 7:38/M
2 Becky Sechrist Whitehouse OH 254 47 108 23:50 7:41/M
3 Joyce Aughenbaugh Sylvania OH 13 49 131 24:50 8:01/M
4 Chris Groesbeck Toledo OH 360 48 170 26:33 8:34/M
5 Gail Bishop Toledo OH 40 45 203 27:44 8:57/M
6 Beverly Booth Carleton MI 393 49 229 28:44 9:16/M
7 Gail Bacon Toledo OH 351 45 231 28:55 9:20/M
8 Dawn Mahn Temperance MI 184 47 270 30:06 9:43/M
9 Nancy Gauger Toledo OH 88 47 271 30:08 9:43/M
10 Melanie Navarre Toledo OH 216 48 281 30:26 9:49/M
11 Cheryl McElvany Monroe MI 199 48 284 30:28 9:50/M
12 June White Monroe MI 307 45 286 30:30 9:50/M
13 Natalie Williams Toledo OH 362 46 287 30:31 9:51/M
14 Michelle Keeling Ottawa Lake MI 148 47 291 30:34 9:52/M
15 Laurie Liebich Perrysburg OH 178 47 299 30:54 9:58/M
16 Sherry Wainz Toledo OH 364 46 377 34:09 11:01/M
17 Gail Threet Holland OH 284 45 388 35:21 11:24/M
18 Katherine Kortier Rossford OH 386 46 403 37:13 12:00/M
19 Connie Taylor Toledo OH 457 49 418 38:26 12:24/M
20 Fran Simmet Temperance MI 481 46 440 42:59 13:52/M
21 Sheri Wilkins Toledo OH 313 49 441 43:25 14:00/M
22 Kathy Costello Monroe MI 58 46 453 45:46 14:46/M
23 Holli Schaller Toledo OH 248 45 462 51:51 16:44/M

Female 50 to 54

Place Name City Bib No Age Overall Time Pace
1 Karen Palmer Toledo OH 372 54 279 30:25 9:49/M
2 Martha Quiroga Temperance MI 236 53 308 31:17 10:05/M
3 Marilyn Agee Sylvania OH 341 52 312 31:25 10:08/M
4 Linda Wilson Lambertville MI 344 53 359 33:13 10:43/M
5 Denise Hauden Toledo OH 114 51 364 33:32 10:49/M
6 Denise Rex Toledo OH 449 54 386 35:15 11:22/M
7 Sherry Snyder Toledo OH 268 50 392 35:57 11:36/M
8 Charlene Spaulding Toledo OH 269 50 395 36:14 11:41/M
9 Dorene Lyczkowski Toledo OH 412 52 416 38:10 12:19/M
10 Susan Kruse Toledo OH 168 54 438 42:58 13:52/M

Female 55 to 59

Place Name City Bib No Age Overall Time Pace
1 Beverly Wolcott Toledo OH 319 59 214 28:11 9:05/M
2 Peggy Evens Maumee OH 78 57 253 29:45 9:36/M
3 Debra Stevens Petersburg MI 271 55 264 29:59 9:40/M
4 Val Hendricks Sylvania OH 514 56 313 31:27 10:09/M
5 Lois Berkowitz Riverview MI 32 59 342 32:37 10:31/M
6 Patty Jankowski Maumee OH 135 55 383 34:49 11:14/M
7 Cynthia McCormack Petersburg OH 198 55 449 45:22 14:38/M

Female 60 to 64

Place Name City Bib No Age Overall Time Pace
1 Annette Wicks Maumee OH 308 61 211 27:56 9:01/M
2 Bonnie K. Loeser Sylvania OH 181 60 398 36:24 11:45/M
3 Genie Wiles Perrysburg OH 311 61 445 44:34 14:23/M
4 Joyce Dashner Temperance MI 63 61 448 45:22 14:38/M
5 Carol Saggese Toledo OH 510 61 464 1:27:00 28:04/M

Female 65 to 69

Place Name City Bib No Age Overall Time Pace
1 Barbara Lindeman Oregon OH 368 66 184 27:04 8:44/M
2 Mel Wicks Maumee OH 309 68 210 27:55 9:00/M

Female 70 to 74

Place Name City Bib No Age Overall Time Pace
1 Jill Calcamuggio Toledo OH 55 73 400 36:36 11:48/M
2 Barb Kime Toledo OH 155 71 460 51:32 16:37/M

Female 75 to 79

Place Name City Bib No Age Overall Time Pace
1 Doris Langel Toledo OH 173 77 446 45:00 14:31/M

No Age Given

Place Name City Bib No Age Overall Time Pace
1 Maggie Lauderdale Sylvania OH 175 99 140 25:13 8:08/M
2 Amanda McCarter Toledo OH 193 99 292 30:34 9:52/M